Time;durP1;ratioP1;P1;durP2;ratioP2;P2;SDS_P1;SDS_P2;PMS_P1;PMS_P2;Temp;Humidity;BMP_temperature;BMP_pressure;BME280_temperature;BME280_humidity;BME280_pressure;Samples;Min_cycle;Max_cycle;Signal;HPM_P1;HPM_P2
2021/10/23 00:00:00;;;;;;;13.80;2.20;;;7.30;99.90;;;;;;5111372;28;20573;-48
2021/10/23 00:02:26;;;;;;;8.60;1.77;;;7.10;99.90;;;;;;5112045;28;20886;-47
2021/10/23 00:04:53;;;;;;;19.40;3.40;;;7.50;99.90;;;;;;5109631;28;20496;-47
2021/10/23 00:07:21;;;;;;;5.00;1.93;;;7.40;99.90;;;;;;5112039;28;20498;-48
2021/10/23 00:09:51;;;;;;;5.90;1.80;;;7.50;99.90;;;;;;5110360;28;20455;-47
2021/10/23 00:12:18;;;;;;;5.67;2.23;;;7.50;99.90;;;;;;5112179;28;20471;-47
2021/10/23 00:14:45;;;;;;;7.23;1.97;;;7.40;99.90;;;;;;5111951;28;20416;-47
2021/10/23 00:17:12;;;;;;;6.30;1.57;;;7.40;99.90;;;;;;5110373;28;20473;-47
2021/10/23 00:19:39;;;;;;;4.47;1.67;;;7.40;99.90;;;;;;5111349;28;20632;-47
2021/10/23 00:22:06;;;;;;;8.13;1.90;;;7.40;99.90;;;;;;5111812;28;20433;-48
2021/10/23 00:24:36;;;;;;;5.27;1.50;;;7.40;99.90;;;;;;5111802;28;20474;-48
2021/10/23 00:27:03;;;;;;;12.03;2.77;;;7.30;99.90;;;;;;5111849;28;20421;-48
2021/10/23 00:29:30;;;;;;;5.93;1.93;;;7.50;99.90;;;;;;5111368;28;20422;-47
2021/10/23 00:31:57;;;;;;;10.37;2.27;;;7.00;99.90;;;;;;5111734;28;20529;-48
2021/10/23 00:34:24;;;;;;;9.40;1.93;;;7.50;99.90;;;;;;5111115;28;20525;-47
2021/10/23 00:36:50;;;;;;;6.30;2.00;;;7.30;99.90;;;;;;5111745;28;20734;-47
2021/10/23 00:39:17;;;;;;;7.43;2.33;;;7.10;99.90;;;;;;5111352;28;20499;-47
2021/10/23 00:41:50;;;;;;;6.87;2.47;;;7.40;99.90;;;;;;5114662;28;20475;-47
2021/10/23 00:44:30;;;;;;;7.67;3.17;;;7.30;99.90;;;;;;5113450;28;20498;-48
2021/10/23 00:47:01;;;;;;;9.70;3.30;;;7.30;99.90;;;;;;5111368;28;20433;-48
2021/10/23 00:49:30;;;;;;;10.33;2.27;;;7.50;99.90;;;;;;5111439;28;20503;-47
2021/10/23 00:51:58;;;;;;;7.90;2.27;;;7.30;99.90;;;;;;5111894;28;21068;-47
2021/10/23 00:54:26;;;;;;;13.77;2.50;;;7.50;99.90;;;;;;5111671;28;20512;-47
2021/10/23 00:56:54;;;;;;;6.43;1.80;;;7.20;99.90;;;;;;5111582;28;20476;-47
2021/10/23 00:59:21;;;;;;;8.10;2.30;;;6.80;99.90;;;;;;5111263;28;20913;-47
2021/10/23 01:01:49;;;;;;;7.63;2.37;;;7.20;99.90;;;;;;5111139;28;20476;-48
2021/10/23 01:04:16;;;;;;;9.43;3.40;;;7.00;99.90;;;;;;5111437;28;20472;-48
2021/10/23 01:06:43;;;;;;;8.43;2.23;;;7.40;99.90;;;;;;5111381;28;20531;-48
2021/10/23 01:09:10;;;;;;;6.37;1.90;;;7.30;99.90;;;;;;5111181;28;20510;-48
2021/10/23 01:11:37;;;;;;;7.10;2.10;;;7.10;99.90;;;;;;5114291;28;20524;-48
2021/10/23 01:14:05;;;;;;;9.33;2.57;;;7.30;99.90;;;;;;5115099;28;20432;-48
2021/10/23 01:16:32;;;;;;;17.27;3.57;;;7.10;99.90;;;;;;5113496;28;21044;-48
2021/10/23 01:18:58;;;;;;;10.73;2.30;;;7.20;99.90;;;;;;5113205;28;20503;-48
2021/10/23 01:21:26;;;;;;;5.97;1.83;;;6.80;99.90;;;;;;5115196;28;20535;-48
2021/10/23 01:23:53;;;;;;;6.97;2.13;;;6.70;99.90;;;;;;5114957;28;20523;-48
2021/10/23 01:26:23;;;;;;;8.17;2.67;;;6.60;99.90;;;;;;5115068;28;21048;-48
2021/10/23 01:28:50;;;;;;;6.43;2.37;;;7.10;99.90;;;;;;5114518;28;20802;-48
2021/10/23 01:31:17;;;;;;;12.03;2.70;;;7.20;99.90;;;;;;5114548;28;20486;-48
2021/10/23 01:33:44;;;;;;;4.60;2.33;;;7.30;99.90;;;;;;5114558;28;20511;-48
2021/10/23 01:36:13;;;;;;;14.73;2.33;;;7.10;99.90;;;;;;5114449;28;20504;-48
2021/10/23 01:38:41;;;;;;;4.90;2.07;;;7.10;99.90;;;;;;5114574;28;20486;-48
2021/10/23 01:41:08;;;;;;;10.40;3.40;;;7.20;99.90;;;;;;5114674;28;20457;-48
2021/10/23 01:43:35;;;;;;;11.07;2.60;;;7.30;99.90;;;;;;5114933;28;20433;-48
2021/10/23 01:46:02;;;;;;;13.47;2.63;;;7.10;99.90;;;;;;5114483;28;20468;-48
2021/10/23 01:48:29;;;;;;;8.13;2.17;;;7.10;99.90;;;;;;5114263;28;20478;-48
2021/10/23 01:50:56;;;;;;;6.80;2.20;;;7.40;99.90;;;;;;5113323;28;20436;-48
2021/10/23 01:53:23;;;;;;;8.03;2.37;;;7.10;99.90;;;;;;5114764;28;20465;-48
2021/10/23 01:55:52;;;;;;;14.00;2.70;;;7.30;99.90;;;;;;5114607;28;20475;-48
2021/10/23 01:58:19;;;;;;;11.50;2.80;;;7.20;99.90;;;;;;5113253;28;20447;-48
2021/10/23 02:00:46;;;;;;;11.57;2.80;;;7.00;99.90;;;;;;5116044;28;20463;-48
2021/10/23 02:03:13;;;;;;;13.20;2.80;;;7.40;99.90;;;;;;5114277;28;20514;-48
2021/10/23 02:05:40;;;;;;;13.83;3.17;;;6.90;99.90;;;;;;5112857;28;20456;-48
2021/10/23 02:08:07;;;;;;;6.03;2.20;;;6.80;99.90;;;;;;5113777;28;20937;-48
2021/10/23 02:10:34;;;;;;;13.20;3.07;;;7.30;99.90;;;;;;5114259;28;20456;-48
2021/10/23 02:13:02;;;;;;;6.73;2.57;;;7.10;99.90;;;;;;5112770;28;20482;-48
2021/10/23 02:15:29;;;;;;;7.70;1.77;;;7.30;99.90;;;;;;5114331;28;20431;-48
2021/10/23 02:17:56;;;;;;;6.23;2.23;;;7.10;99.90;;;;;;5112300;28;20856;-48
2021/10/23 02:20:23;;;;;;;7.50;2.40;;;7.10;99.90;;;;;;5113877;28;20544;-48
2021/10/23 02:22:50;;;;;;;11.03;2.40;;;7.10;99.90;;;;;;5113707;28;20413;-48
2021/10/23 02:25:16;;;;;;;8.53;2.57;;;7.00;99.90;;;;;;5113724;28;20504;-48
2021/10/23 02:27:43;;;;;;;10.53;2.30;;;7.10;99.90;;;;;;5113308;28;20827;-48
2021/10/23 02:30:12;;;;;;;9.50;3.00;;;6.90;99.90;;;;;;5113266;28;20544;-48
2021/10/23 02:32:39;;;;;;;10.27;2.33;;;7.20;99.90;;;;;;5113293;28;20533;-48
2021/10/23 02:35:06;;;;;;;8.07;2.17;;;6.90;99.90;;;;;;5112220;28;20520;-48
2021/10/23 02:37:34;;;;;;;10.57;2.67;;;7.10;99.90;;;;;;5113416;28;20558;-48
2021/10/23 02:40:00;;;;;;;11.30;2.77;;;6.90;99.90;;;;;;5112036;28;20469;-48
2021/10/23 02:42:27;;;;;;;9.40;2.60;;;7.10;99.90;;;;;;5112049;28;20461;-48
2021/10/23 02:44:54;;;;;;;12.30;3.30;;;7.20;99.90;;;;;;5113486;28;20476;-48
2021/10/23 02:47:24;;;;;;;8.77;2.57;;;6.90;99.90;;;;;;5095560;28;20426;-48
2021/10/23 02:49:51;;;;;;;14.97;4.10;;;7.10;99.90;;;;;;5113122;28;21236;-48
2021/10/23 02:52:18;;;;;;;21.33;3.57;;;7.20;99.90;;;;;;5113289;28;20428;-48
2021/10/23 02:54:45;;;;;;;10.77;3.37;;;7.20;99.90;;;;;;5113366;28;20489;-48
2021/10/23 02:57:12;;;;;;;10.17;2.80;;;6.90;99.90;;;;;;5113114;28;20523;-48
2021/10/23 02:59:39;;;;;;;13.57;2.80;;;6.60;99.90;;;;;;5112827;28;20440;-48
2021/10/23 03:02:06;;;;;;;9.43;2.77;;;7.00;99.90;;;;;;5113223;28;20434;-48
2021/10/23 03:04:34;;;;;;;12.83;2.50;;;6.70;99.90;;;;;;5112878;28;20540;-48
2021/10/23 03:07:01;;;;;;;15.80;4.40;;;7.10;99.90;;;;;;5113305;28;20523;-48
2021/10/23 03:09:27;;;;;;;6.87;2.73;;;6.80;99.90;;;;;;5111207;28;20428;-48
2021/10/23 03:11:54;;;;;;;8.47;3.47;;;7.00;99.90;;;;;;5112796;28;20536;-48
2021/10/23 03:14:21;;;;;;;10.57;3.03;;;7.10;99.90;;;;;;5113143;28;20628;-48
2021/10/23 03:16:47;;;;;;;16.47;4.10;;;6.90;99.90;;;;;;5114083;28;20557;-48
2021/10/23 03:19:15;;;;;;;8.23;3.20;;;7.00;99.90;;;;;;5113118;28;20849;-48
2021/10/23 03:21:43;;;;;;;15.57;3.20;;;6.70;99.90;;;;;;5112736;28;20549;-48
2021/10/23 03:24:10;;;;;;;12.53;3.90;;;7.00;99.90;;;;;;5111606;28;20485;-48
2021/10/23 03:26:39;;;;;;;6.83;2.33;;;7.00;99.90;;;;;;5111434;28;20783;-48
2021/10/23 03:29:06;;;;;;;12.90;3.23;;;7.20;99.90;;;;;;5112072;28;20472;-48
2021/10/23 03:31:33;;;;;;;10.47;3.53;;;7.30;99.90;;;;;;5112303;28;20439;-48
2021/10/23 03:33:59;;;;;;;14.10;3.23;;;6.90;99.90;;;;;;5110863;28;20992;-48
2021/10/23 03:36:26;;;;;;;11.17;2.50;;;7.10;99.90;;;;;;5111137;28;20495;-48
2021/10/23 03:38:55;;;;;;;9.53;2.77;;;7.00;99.90;;;;;;5112189;28;20472;-48
2021/10/23 03:41:21;;;;;;;9.70;2.57;;;7.00;99.90;;;;;;5111480;28;20873;-48
2021/10/23 03:43:48;;;;;;;8.90;1.93;;;6.90;99.90;;;;;;5112535;28;20499;-48
2021/10/23 03:46:15;;;;;;;11.47;2.60;;;7.10;99.90;;;;;;5112558;28;20515;-48
2021/10/23 03:48:41;;;;;;;7.83;2.73;;;6.80;99.90;;;;;;5110864;28;20424;-48
2021/10/23 03:51:08;;;;;;;9.37;2.57;;;7.10;99.90;;;;;;5112237;28;20531;-48
2021/10/23 03:53:35;;;;;;;10.77;3.10;;;6.80;99.90;;;;;;5110999;28;21016;-48
2021/10/23 03:56:03;;;;;;;16.30;2.90;;;6.80;99.90;;;;;;5112061;28;20519;-46
2021/10/23 03:58:32;;;;;;;7.43;2.73;;;7.20;99.90;;;;;;5111764;28;20978;-47
2021/10/23 04:00:59;;;;;;;9.50;3.00;;;6.60;99.90;;;;;;5111143;28;20479;-47
2021/10/23 04:03:27;;;;;;;10.40;3.00;;;6.70;99.90;;;;;;5112340;28;20425;-47
2021/10/23 04:05:53;;;;;;;13.90;3.40;;;6.90;99.90;;;;;;5111900;28;20407;-47
2021/10/23 04:08:20;;;;;;;13.87;4.60;;;7.00;99.90;;;;;;5111779;28;20494;-47
2021/10/23 04:10:48;;;;;;;12.60;3.60;;;7.00;99.90;;;;;;5110727;28;20437;-47
2021/10/23 04:13:16;;;;;;;18.03;3.43;;;7.10;99.90;;;;;;5110782;28;20531;-47
2021/10/23 04:15:43;;;;;;;9.90;2.63;;;7.10;99.90;;;;;;5112138;28;20484;-47
2021/10/23 04:18:10;;;;;;;10.47;3.00;;;7.30;99.90;;;;;;5110357;28;20526;-47
2021/10/23 04:20:37;;;;;;;8.63;3.00;;;7.20;99.90;;;;;;5112398;28;20451;-47
2021/10/23 04:23:04;;;;;;;17.37;3.30;;;7.30;99.90;;;;;;5110609;28;20954;-47
2021/10/23 04:25:30;;;;;;;13.60;3.10;;;7.30;99.90;;;;;;5110504;28;20447;-47
2021/10/23 04:27:57;;;;;;;9.17;3.30;;;7.50;99.90;;;;;;5110260;28;20539;-47
2021/10/23 04:30:25;;;;;;;11.80;3.20;;;7.20;99.90;;;;;;5111936;28;20456;-47
2021/10/23 04:32:54;;;;;;;8.40;2.53;;;7.10;99.90;;;;;;5111968;28;20404;-47
2021/10/23 04:35:22;;;;;;;9.00;3.70;;;7.30;99.90;;;;;;5112331;28;20519;-47
2021/10/23 04:37:53;;;;;;;8.87;3.23;;;7.30;99.90;;;;;;5112043;28;20476;-47
2021/10/23 04:40:25;;;;;;;13.13;3.37;;;7.10;99.90;;;;;;5111709;28;20842;-47
2021/10/23 04:42:52;;;;;;;14.77;2.77;;;7.40;99.90;;;;;;5111577;28;20420;-47
2021/10/23 04:45:19;;;;;;;16.03;3.30;;;7.30;99.90;;;;;;5112407;28;20429;-47
2021/10/23 04:47:49;;;;;;;13.37;3.47;;;7.30;99.90;;;;;;5115261;28;20409;-47
2021/10/23 04:50:16;;;;;;;17.40;3.77;;;7.10;99.90;;;;;;5114184;28;20530;-47
2021/10/23 04:52:43;;;;;;;10.40;3.67;;;7.10;99.90;;;;;;5115538;28;20433;-48
2021/10/23 04:55:10;;;;;;;13.33;3.37;;;7.00;99.90;;;;;;5115554;28;20516;-47
2021/10/23 04:57:37;;;;;;;12.03;3.33;;;7.00;99.90;;;;;;5115256;28;20814;-47
2021/10/23 05:00:06;;;;;;;13.90;5.77;;;7.10;99.90;;;;;;5115143;28;20462;-47
2021/10/23 05:02:32;;;;;;;15.13;3.87;;;7.10;99.90;;;;;;5114316;28;20431;-48
2021/10/23 05:05:00;;;;;;;11.23;3.63;;;7.10;99.90;;;;;;5115690;28;20528;-48
2021/10/23 05:07:27;;;;;;;11.80;3.40;;;7.00;99.90;;;;;;5113836;28;20545;-48
2021/10/23 05:09:54;;;;;;;11.13;3.50;;;7.00;99.90;;;;;;5114775;28;20454;-48
2021/10/23 05:12:20;;;;;;;6.13;3.03;;;6.50;99.90;;;;;;5115235;28;20528;-48
2021/10/23 05:14:50;;;;;;;12.03;3.20;;;6.90;99.90;;;;;;5114993;28;20460;-48
2021/10/23 05:17:16;;;;;;;9.80;2.73;;;7.00;99.90;;;;;;5114903;28;20479;-48
2021/10/23 05:19:44;;;;;;;10.00;3.50;;;7.00;99.90;;;;;;5113269;28;21028;-48
2021/10/23 05:22:15;;;;;;;13.53;4.37;;;7.10;99.90;;;;;;5115004;28;20468;-48
2021/10/23 05:24:42;;;;;;;11.07;3.90;;;7.10;99.90;;;;;;5113418;28;20456;-48
2021/10/23 05:27:15;;;;;;;9.50;2.60;;;7.10;99.90;;;;;;5114823;28;20623;-48
2021/10/23 05:29:42;;;;;;;10.67;2.97;;;7.00;99.90;;;;;;5114575;28;20436;-47
2021/10/23 05:32:11;;;;;;;11.90;2.40;;;6.90;99.90;;;;;;5114603;28;20531;-47
2021/10/23 05:34:38;;;;;;;15.17;2.83;;;7.00;99.90;;;;;;5113242;28;20541;-47
2021/10/23 05:37:05;;;;;;;14.30;3.43;;;6.90;99.90;;;;;;5113126;28;20555;-49
2021/10/23 05:39:33;;;;;;;10.83;3.20;;;6.60;99.90;;;;;;5112731;28;20418;-47
2021/10/23 05:42:02;;;;;;;10.87;2.97;;;7.00;99.90;;;;;;5114438;28;20419;-48
2021/10/23 05:44:29;;;;;;;12.17;3.70;;;7.30;99.90;;;;;;5114782;28;20494;-47
2021/10/23 05:46:56;;;;;;;9.20;2.80;;;6.70;99.90;;;;;;5114302;28;20954;-47
2021/10/23 05:49:23;;;;;;;10.33;2.67;;;6.90;99.90;;;;;;5114221;28;20521;-47
2021/10/23 05:51:51;;;;;;;14.10;3.00;;;7.10;99.90;;;;;;5114274;28;20457;-48
2021/10/23 05:54:20;;;;;;;12.47;3.60;;;6.70;99.90;;;;;;5117870;28;20408;-47
2021/10/23 05:56:49;;;;;;;8.00;3.23;;;6.80;99.90;;;;;;5114825;28;20862;-48
2021/10/23 05:59:19;;;;;;;9.77;3.13;;;7.10;99.90;;;;;;5112454;28;20827;-47
2021/10/23 06:01:47;;;;;;;10.73;2.50;;;6.50;99.90;;;;;;5114132;28;20469;-47
2021/10/23 06:04:15;;;;;;;10.53;3.07;;;6.60;99.90;;;;;;5112705;28;20954;-47
2021/10/23 06:06:42;;;;;;;8.63;2.80;;;6.90;99.90;;;;;;5112539;28;20419;-48
2021/10/23 06:09:08;;;;;;;8.47;2.70;;;7.00;99.90;;;;;;5113451;28;20857;-47
2021/10/23 06:11:35;;;;;;;7.30;2.70;;;6.90;99.90;;;;;;5112375;28;20485;-48
2021/10/23 06:14:04;;;;;;;7.00;3.00;;;6.80;99.90;;;;;;5112427;28;20464;-47
2021/10/23 06:16:31;;;;;;;8.60;2.70;;;6.80;99.90;;;;;;5113985;28;20441;-48
2021/10/23 06:18:58;;;;;;;11.37;2.33;;;6.80;99.90;;;;;;5113431;28;20495;-47
2021/10/23 06:21:25;;;;;;;9.67;2.90;;;6.90;99.90;;;;;;5113889;28;20826;-47
2021/10/23 06:23:52;;;;;;;10.13;2.80;;;6.80;99.90;;;;;;5114051;28;20438;-48
2021/10/23 06:26:18;;;;;;;5.97;2.30;;;6.90;99.90;;;;;;5113633;28;20429;-48
2021/10/23 06:28:45;;;;;;;12.53;2.23;;;6.40;99.90;;;;;;5113389;28;20913;-48
2021/10/23 06:31:13;;;;;;;8.17;2.57;;;6.90;99.90;;;;;;5112545;28;20771;-48
2021/10/23 06:33:46;;;;;;;14.93;2.50;;;7.10;99.90;;;;;;5113667;28;20461;-48
2021/10/23 06:36:17;;;;;;;7.80;2.90;;;6.80;99.90;;;;;;5112327;28;20998;-48
2021/10/23 06:38:44;;;;;;;7.73;2.70;;;6.90;99.90;;;;;;5112396;28;20463;-48
2021/10/23 06:41:10;;;;;;;8.67;3.13;;;7.00;99.90;;;;;;5113170;28;20481;-48
2021/10/23 06:43:37;;;;;;;11.97;3.43;;;6.60;99.90;;;;;;5113453;28;20489;-48
2021/10/23 06:46:04;;;;;;;12.40;2.63;;;6.80;99.90;;;;;;5113151;28;20844;-48
2021/10/23 06:48:32;;;;;;;9.47;2.80;;;7.10;99.90;;;;;;5112990;28;20430;-48
2021/10/23 06:50:59;;;;;;;14.13;3.20;;;6.90;99.90;;;;;;5113154;28;20453;-47
2021/10/23 06:53:25;;;;;;;7.93;2.50;;;7.00;99.90;;;;;;5111814;28;20498;-48
2021/10/23 06:55:52;;;;;;;6.13;2.73;;;7.10;99.90;;;;;;5113127;28;20491;-48
2021/10/23 06:58:19;;;;;;;8.13;2.93;;;7.30;99.90;;;;;;5112648;28;20508;-48
2021/10/23 07:00:46;;;;;;;16.03;3.40;;;7.30;99.90;;;;;;5112716;28;20595;-48
2021/10/23 07:03:12;;;;;;;9.20;3.10;;;7.20;99.90;;;;;;5111889;28;20865;-49
2021/10/23 07:05:40;;;;;;;8.17;3.07;;;7.20;99.90;;;;;;5112534;28;20521;-48
2021/10/23 07:08:09;;;;;;;6.87;2.70;;;7.30;99.90;;;;;;5110564;28;20453;-48
2021/10/23 07:10:38;;;;;;;12.70;3.83;;;7.30;99.90;;;;;;5111332;28;20476;-48
2021/10/23 07:13:05;;;;;;;15.43;2.90;;;7.20;99.90;;;;;;5115822;28;20434;-47
2021/10/23 07:15:32;;;;;;;13.40;2.97;;;7.30;99.90;;;;;;5112973;28;20860;-48
2021/10/23 07:17:59;;;;;;;7.50;2.63;;;7.40;99.90;;;;;;5112109;28;20565;-47
2021/10/23 07:20:28;;;;;;;21.53;3.23;;;7.30;99.90;;;;;;5112774;28;20502;-47
2021/10/23 07:22:56;;;;;;;15.13;2.80;;;7.40;99.90;;;;;;5111252;28;20579;-48
2021/10/23 07:25:26;;;;;;;8.37;2.53;;;7.50;99.90;;;;;;5112742;28;20419;-47
2021/10/23 07:27:52;;;;;;;8.67;2.40;;;7.20;99.90;;;;;;5112109;28;20433;-47
2021/10/23 07:30:21;;;;;;;12.27;2.80;;;7.50;99.90;;;;;;5112560;28;20503;-48
2021/10/23 07:32:48;;;;;;;6.67;3.33;;;7.20;99.90;;;;;;5112311;28;20790;-47
2021/10/23 07:35:15;;;;;;;11.83;3.07;;;7.60;99.90;;;;;;5112446;28;20441;-47
2021/10/23 07:37:42;;;;;;;6.40;2.80;;;7.30;99.90;;;;;;5111632;28;20580;-47
2021/10/23 07:40:13;;;;;;;13.30;3.30;;;7.90;99.90;;;;;;5112200;28;20492;-47
2021/10/23 07:42:41;;;;;;;14.33;3.90;;;7.90;99.90;;;;;;5112010;28;21019;-47
2021/10/23 07:45:10;;;;;;;16.10;3.53;;;8.10;99.90;;;;;;5110896;28;20490;-47
2021/10/23 07:47:37;;;;;;;12.73;3.57;;;8.10;99.90;;;;;;5112304;28;20458;-47
2021/10/23 07:50:05;;;;;;;10.30;3.17;;;8.30;99.90;;;;;;5111868;28;20517;-49
2021/10/23 07:52:32;;;;;;;13.87;3.97;;;8.50;99.90;;;;;;5111701;28;20427;-47
2021/10/23 07:54:58;;;;;;;14.13;3.57;;;8.70;99.90;;;;;;5112022;28;20943;-48
2021/10/23 07:57:26;;;;;;;13.77;3.23;;;8.50;99.90;;;;;;5111539;28;20462;-47
2021/10/23 07:59:53;;;;;;;8.97;2.13;;;8.50;99.90;;;;;;5111473;28;20857;-47
2021/10/23 08:02:20;;;;;;;10.37;3.13;;;8.70;99.90;;;;;;5112050;28;20436;-47
2021/10/23 08:04:50;;;;;;;9.80;3.10;;;8.80;99.90;;;;;;5111883;28;20437;-47
2021/10/23 08:07:17;;;;;;;8.57;2.90;;;8.70;99.90;;;;;;5111469;28;20407;-48
2021/10/23 08:09:44;;;;;;;11.80;3.50;;;8.80;99.90;;;;;;5111308;28;20518;-47
2021/10/23 08:12:10;;;;;;;8.27;2.87;;;9.00;99.90;;;;;;5111697;28;20431;-47
2021/10/23 08:14:38;;;;;;;11.13;2.90;;;9.10;99.90;;;;;;5111845;28;20498;-47
2021/10/23 08:17:05;;;;;;;9.10;2.90;;;8.90;99.90;;;;;;5110559;28;20675;-48
2021/10/23 08:19:32;;;;;;;12.37;3.53;;;9.00;99.90;;;;;;5112369;28;20472;-48
2021/10/23 08:22:00;;;;;;;9.57;3.00;;;9.00;99.90;;;;;;5115954;28;20428;-47
2021/10/23 08:24:27;;;;;;;7.20;2.60;;;9.00;99.90;;;;;;5115358;28;20889;-47
2021/10/23 08:26:56;;;;;;;11.00;3.10;;;9.00;99.90;;;;;;5115498;28;20460;-48
2021/10/23 08:29:23;;;;;;;10.10;2.67;;;9.10;99.90;;;;;;5114143;28;20444;-47
2021/10/23 08:31:51;;;;;;;10.13;3.00;;;8.90;99.90;;;;;;5117403;28;20489;-47
2021/10/23 08:34:18;;;;;;;8.30;2.50;;;9.30;99.90;;;;;;5116721;28;20467;-48
2021/10/23 08:36:45;;;;;;;10.70;2.97;;;9.10;99.90;;;;;;5115679;28;20974;-48
2021/10/23 08:39:13;;;;;;;10.07;2.93;;;9.40;99.90;;;;;;5115242;28;20472;-47
2021/10/23 08:41:43;;;;;;;8.07;3.20;;;9.50;99.90;;;;;;5116275;28;20539;-48
2021/10/23 08:44:13;;;;;;;11.77;2.90;;;9.50;99.90;;;;;;5115448;28;20427;-48
2021/10/23 08:46:41;;;;;;;14.73;2.60;;;9.10;99.90;;;;;;5114062;28;20488;-48
2021/10/23 08:49:09;;;;;;;21.27;3.27;;;9.70;99.90;;;;;;5113974;28;20443;-48
2021/10/23 08:51:36;;;;;;;14.17;3.00;;;9.60;99.90;;;;;;5115128;28;20447;-48
2021/10/23 08:54:03;;;;;;;8.87;2.60;;;9.70;99.90;;;;;;5115524;28;20478;-49
2021/10/23 08:56:30;;;;;;;16.00;2.57;;;9.80;99.90;;;;;;5114619;28;20809;-48
2021/10/23 08:58:57;;;;;;;9.67;2.50;;;9.80;99.90;;;;;;5114984;28;20567;-48
2021/10/23 09:01:24;;;;;;;10.03;3.00;;;9.90;99.90;;;;;;5114861;28;20538;-48
2021/10/23 09:03:52;;;;;;;6.63;2.77;;;9.90;99.90;;;;;;5115231;28;20539;-48
2021/10/23 09:06:32;;;;;;;11.87;3.27;;;9.80;99.90;;;;;;5115084;28;20435;-48
2021/10/23 09:09:06;;;;;;;9.07;2.67;;;10.20;99.90;;;;;;5113442;28;20523;-48
2021/10/23 09:11:36;;;;;;;12.63;2.77;;;10.10;99.90;;;;;;5115379;28;20947;-48
2021/10/23 09:14:28;;;;;;;10.80;3.07;;;10.30;99.90;;;;;;5115454;28;20428;-48
2021/10/23 09:17:11;;;;;;;9.77;2.70;;;10.20;99.90;;;;;;5115301;28;20432;-48
2021/10/23 09:19:42;;;;;;;9.83;2.83;;;10.50;99.90;;;;;;5114068;28;20975;-48
2021/10/23 09:22:23;;;;;;;9.10;2.47;;;10.30;99.90;;;;;;5114385;28;20551;-47
2021/10/23 09:24:51;;;;;;;6.73;2.83;;;10.40;99.90;;;;;;5114565;27;20523;-47
2021/10/23 09:27:19;;;;;;;9.77;2.13;;;10.60;99.90;;;;;;5114511;28;20765;-48
2021/10/23 09:29:47;;;;;;;11.00;2.43;;;10.50;99.90;;;;;;5112760;28;20534;-48
2021/10/23 09:32:13;;;;;;;11.63;3.50;;;10.60;99.90;;;;;;5113471;28;20424;-48
2021/10/23 09:34:42;;;;;;;11.93;3.80;;;10.00;99.90;;;;;;5114471;28;20434;-47
2021/10/23 09:37:11;;;;;;;10.53;3.23;;;9.90;99.90;;;;;;5114128;28;20454;-49
2021/10/23 09:39:38;;;;;;;11.80;2.63;;;10.20;99.90;;;;;;5113881;28;20838;-48
2021/10/23 09:42:16;;;;;;;10.40;3.07;;;10.20;99.90;;;;;;5114222;28;20518;-48
2021/10/23 09:45:04;;;;;;;15.80;3.37;;;10.30;99.90;;;;;;5114076;28;20440;-47
2021/10/23 09:47:32;;;;;;;11.80;2.60;;;10.10;99.90;;;;;;5113991;28;20442;-48
2021/10/23 09:50:21;;;;;;;9.47;2.87;;;10.10;99.90;;;;;;5114306;28;20455;-48
2021/10/23 09:52:58;;;;;;;10.53;2.83;;;10.30;99.90;;;;;;5106076;28;20448;-47
2021/10/23 09:55:27;;;;;;;8.93;2.63;;;10.20;99.90;;;;;;5112959;28;20542;-47
2021/10/23 09:58:16;;;;;;;10.80;4.93;;;10.30;99.90;;;;;;5113272;28;20513;-48
2021/10/23 10:00:45;;;;;;;10.90;3.30;;;10.20;99.90;;;;;;5129493;22;20493;-50
2021/10/23 10:03:15;;;;;;;9.03;3.07;;;10.60;99.90;;;;;;5092641;28;20933;-51
2021/10/23 10:05:42;;;;;;;10.50;3.50;;;10.30;99.90;;;;;;5092495;28;20437;-51
2021/10/23 10:08:12;;;;;;;8.70;3.93;;;10.30;99.90;;;;;;5092546;28;20445;-51
2021/10/23 10:10:41;;;;;;;10.30;3.50;;;10.40;99.90;;;;;;5074396;28;20567;-50
2021/10/23 10:13:11;;;;;;;11.20;3.60;;;10.00;99.90;;;;;;5074478;28;20461;-51
2021/10/23 10:15:40;;;;;;;10.77;3.37;;;10.50;99.90;;;;;;5092989;28;20464;-51
2021/10/23 10:18:08;;;;;;;9.00;2.60;;;10.60;99.90;;;;;;5091898;28;20961;-51
2021/10/23 10:20:37;;;;;;;12.60;3.50;;;10.50;99.90;;;;;;5092364;28;20542;-50
2021/10/23 10:23:10;;;;;;;6.80;2.70;;;10.70;99.90;;;;;;5092470;28;20424;-52
2021/10/23 10:25:38;;;;;;;8.83;2.80;;;10.80;99.90;;;;;;5092707;28;20441;-51
2021/10/23 10:28:11;;;;;;;6.43;2.60;;;10.80;99.90;;;;;;5073286;28;20500;-52
2021/10/23 10:30:40;;;;;;;13.00;2.70;;;10.70;99.90;;;;;;5093034;28;20460;-51
2021/10/23 10:33:19;;;;;;;8.90;2.40;;;10.70;99.90;;;;;;5074282;28;20510;-51
2021/10/23 10:35:59;;;;;;;11.63;3.20;;;11.10;99.90;;;;;;5092085;28;20933;-51
2021/10/23 10:38:53;;;;;;;7.60;3.20;;;10.50;99.90;;;;;;5091566;28;20952;-51
2021/10/23 10:44:20;;;;;;;7.00;2.50;;;10.80;99.90;;;;;;5091995;28;20403;-51
2021/10/23 10:47:09;;;;;;;15.40;3.37;;;11.20;99.90;;;;;;5092307;28;20959;-50
2021/10/23 10:49:41;;;;;;;16.33;2.50;;;10.90;99.90;;;;;;5091767;28;20457;-51
2021/10/23 10:52:41;;;;;;;9.40;2.60;;;10.80;99.90;;;;;;5091678;28;20548;-51
2021/10/23 10:55:12;;;;;;;13.10;3.13;;;11.00;99.90;;;;;;5092235;28;20444;-51
2021/10/23 10:58:05;;;;;;;9.93;2.60;;;11.10;99.90;;;;;;5091928;28;20436;-52
2021/10/23 11:01:12;;;;;;;11.00;2.93;;;11.20;99.90;;;;;;5091550;28;20493;-51
2021/10/23 11:03:43;;;;;;;14.13;2.83;;;11.50;99.90;;;;;;5074374;28;20463;-51
2021/10/23 11:06:45;;;;;;;14.40;2.73;;;11.30;99.90;;;;;;5073834;28;20945;-52
2021/10/23 11:09:45;;;;;;;8.00;2.17;;;11.40;99.90;;;;;;5090961;28;20522;-53
2021/10/23 11:12:29;;;;;;;12.27;3.20;;;11.50;99.90;;;;;;5084656;28;20560;-51
2021/10/23 11:15:00;;;;;;;11.10;2.33;;;11.60;99.90;;;;;;5074129;28;20445;-51
2021/10/23 11:17:27;;;;;;;7.30;2.27;;;11.80;99.90;;;;;;5072918;28;20823;-51
2021/10/23 11:19:58;;;;;;;8.03;2.70;;;11.40;99.90;;;;;;5091212;28;20477;-52
2021/10/23 11:22:29;;;;;;;6.00;2.23;;;11.80;99.90;;;;;;5073080;28;20440;-52
2021/10/23 11:25:00;;;;;;;9.80;2.40;;;11.80;99.90;;;;;;5091257;28;20468;-52
2021/10/23 11:27:31;;;;;;;7.20;2.60;;;11.80;99.90;;;;;;5091257;28;20430;-51
2021/10/23 11:30:07;;;;;;;14.00;3.33;;;12.00;99.90;;;;;;5090702;28;20437;-52
2021/10/23 11:32:35;;;;;;;7.80;2.47;;;11.90;99.90;;;;;;5072898;28;20959;-52
2021/10/23 11:35:03;;;;;;;7.43;2.47;;;12.00;99.90;;;;;;5072985;28;20526;-51
2021/10/23 11:37:30;;;;;;;16.80;3.83;;;12.20;99.90;;;;;;5072590;28;20451;-52
2021/10/23 11:39:58;;;;;;;9.90;2.90;;;12.40;99.90;;;;;;5090264;28;20827;-52
2021/10/23 11:42:27;;;;;;;8.67;3.33;;;12.30;99.90;;;;;;5073207;28;20455;-52
2021/10/23 11:44:54;;;;;;;11.43;2.47;;;12.30;99.90;;;;;;5090630;28;20440;-51
2021/10/23 11:47:29;;;;;;;12.23;3.53;;;12.20;99.90;;;;;;5090906;28;20438;-52
2021/10/23 11:49:58;;;;;;;9.30;2.70;;;11.80;99.90;;;;;;5072759;28;20919;-52
2021/10/23 11:52:27;;;;;;;11.60;2.73;;;12.00;99.90;;;;;;5072855;28;20783;-52
2021/10/23 11:54:55;;;;;;;12.60;3.23;;;11.70;99.90;;;;;;5072118;28;20444;-51
2021/10/23 11:57:38;;;;;;;11.93;3.30;;;12.00;99.90;;;;;;5090749;28;20438;-52
2021/10/23 12:00:15;;;;;;;9.83;3.43;;;12.10;99.90;;;;;;5090589;28;20485;-51
2021/10/23 12:02:48;;;;;;;6.03;2.80;;;12.20;99.90;;;;;;5090943;28;20433;-52
2021/10/23 12:05:20;;;;;;;13.77;3.37;;;12.40;99.90;;;;;;5090753;28;20831;-52
2021/10/23 12:07:49;;;;;;;9.57;3.17;;;12.20;99.40;;;;;;5071620;28;20802;-51
2021/10/23 12:10:15;;;;;;;10.00;2.80;;;12.10;99.60;;;;;;5090773;28;20455;-52
2021/10/23 12:12:42;;;;;;;8.33;2.97;;;12.00;99.20;;;;;;5072198;28;20547;-51
2021/10/23 12:15:16;;;;;;;10.50;3.27;;;12.00;99.30;;;;;;5090822;28;20603;-51
2021/10/23 12:17:43;;;;;;;8.53;3.10;;;12.00;99.50;;;;;;5090275;28;20909;-52
2021/10/23 12:20:16;;;;;;;11.90;2.90;;;12.50;99.80;;;;;;5090435;28;20441;-52
2021/10/23 12:22:45;;;;;;;13.73;3.40;;;11.90;99.60;;;;;;5090991;28;20453;-52
2021/10/23 12:25:12;;;;;;;8.00;2.97;;;11.60;99.30;;;;;;5072369;28;20449;-52
2021/10/23 12:27:39;;;;;;;9.33;3.20;;;12.00;99.10;;;;;;5071926;28;20529;-52
2021/10/23 12:30:07;;;;;;;5.30;2.27;;;11.90;98.80;;;;;;5090103;28;20817;-52
2021/10/23 12:32:36;;;;;;;10.87;3.77;;;12.10;99.10;;;;;;5089809;28;20478;-51
2021/10/23 12:35:09;;;;;;;10.20;3.80;;;12.10;99.00;;;;;;5089770;28;20469;-52
2021/10/23 12:37:43;;;;;;;8.70;3.70;;;12.20;98.70;;;;;;5089777;28;20783;-51
2021/10/23 12:40:26;;;;;;;12.53;3.20;;;12.00;98.60;;;;;;5071568;28;20516;-51
2021/10/23 12:42:57;;;;;;;8.00;2.70;;;11.80;98.60;;;;;;5089989;28;20436;-51
2021/10/23 12:45:26;;;;;;;7.93;3.03;;;11.90;98.90;;;;;;5090289;28;20446;-51
2021/10/23 12:47:54;;;;;;;9.67;2.57;;;12.20;98.90;;;;;;5090323;28;20425;-52
2021/10/23 12:50:24;;;;;;;7.63;2.90;;;12.00;98.80;;;;;;5090333;28;20449;-51
2021/10/23 12:52:53;;;;;;;9.80;3.00;;;12.20;99.00;;;;;;5090046;28;20829;-52
2021/10/23 12:55:21;;;;;;;8.50;2.40;;;12.30;99.00;;;;;;5072102;28;21034;-51
2021/10/23 12:57:48;;;;;;;9.73;2.87;;;12.20;98.60;;;;;;5089863;28;20529;-52
2021/10/23 13:00:15;;;;;;;6.60;2.40;;;12.10;98.60;;;;;;5071563;28;20579;-51